createdAt,value
2017-04-30T04:00:47.020Z,5
2017-04-30T04:01:12.550Z,5
2017-04-30T04:01:38.034Z,10
2017-04-30T04:02:03.532Z,10
2017-04-30T04:02:28.988Z,10
2017-04-30T04:02:54.461Z,10
2017-04-30T04:03:19.945Z,10
2017-04-30T04:03:45.436Z,10
2017-04-30T04:04:10.897Z,10
2017-04-30T04:04:36.335Z,10
2017-04-30T04:05:01.820Z,10
2017-04-30T04:05:27.277Z,10
2017-04-30T04:05:52.722Z,10
2017-04-30T04:06:18.157Z,10
2017-04-30T04:06:43.608Z,15
2017-04-30T04:07:09.089Z,15
2017-04-30T04:07:34.534Z,15
2017-04-30T04:07:59.997Z,15
2017-04-30T04:08:25.460Z,15
2017-04-30T04:08:50.902Z,15
2017-04-30T04:09:16.432Z,15
2017-04-30T04:09:41.984Z,15
2017-04-30T04:10:07.451Z,15
2017-04-30T04:10:32.926Z,15
2017-04-30T04:10:58.411Z,15
2017-04-30T04:11:23.837Z,20
2017-04-30T04:11:49.322Z,20
2017-04-30T04:12:14.772Z,20
2017-04-30T04:12:40.271Z,20
2017-04-30T04:13:05.741Z,20
2017-04-30T04:13:31.167Z,20
2017-04-30T04:13:56.617Z,20
2017-04-30T04:14:22.088Z,20
2017-04-30T04:14:47.544Z,20
2017-04-30T04:15:13.001Z,20
2017-04-30T04:15:38.439Z,25
2017-04-30T04:16:03.920Z,25
2017-04-30T04:16:29.404Z,25
2017-04-30T04:16:54.860Z,25
2017-04-30T04:17:20.336Z,25
2017-04-30T04:17:45.793Z,25
2017-04-30T04:18:11.281Z,25
2017-04-30T04:18:36.736Z,25
2017-04-30T04:19:02.244Z,30
2017-04-30T04:19:27.702Z,30
2017-04-30T04:19:53.200Z,30
2017-04-30T04:20:18.620Z,30
2017-04-30T04:20:44.057Z,30
2017-04-30T04:21:09.569Z,30
2017-04-30T04:21:34.993Z,30
2017-04-30T04:22:00.465Z,30
2017-04-30T04:22:25.910Z,30
2017-04-30T04:22:51.406Z,35
2017-04-30T04:23:16.879Z,35
2017-04-30T04:23:42.342Z,35
2017-04-30T04:24:07.782Z,35
2017-04-30T04:24:33.244Z,35
2017-04-30T04:24:58.696Z,35
2017-04-30T04:25:24.177Z,35
2017-04-30T04:25:49.667Z,35
2017-04-30T04:26:15.203Z,40
2017-04-30T04:26:40.690Z,40
2017-04-30T04:27:06.154Z,40
2017-04-30T04:27:31.601Z,40
2017-04-30T04:27:57.066Z,40
2017-04-30T04:28:22.547Z,40
2017-04-30T04:28:47.988Z,40
2017-04-30T04:29:13.452Z,40
2017-04-30T04:29:39.059Z,40
2017-04-30T04:30:04.570Z,45
2017-04-30T04:30:30.033Z,45
2017-04-30T04:30:55.503Z,45
2017-04-30T04:31:20.956Z,45
2017-04-30T04:31:46.407Z,45
2017-04-30T04:32:11.931Z,45
2017-04-30T04:32:37.410Z,45
2017-04-30T04:33:02.854Z,45
2017-04-30T04:33:28.346Z,50
2017-04-30T04:33:53.791Z,50
2017-04-30T04:34:19.252Z,50
2017-04-30T04:34:44.720Z,50
2017-04-30T04:35:10.146Z,50
2017-04-30T04:35:35.612Z,50
2017-04-30T04:36:01.079Z,50
2017-04-30T04:36:26.557Z,50
2017-04-30T04:36:52.021Z,55
2017-04-30T04:37:17.488Z,55
2017-04-30T04:37:42.965Z,55
2017-04-30T04:38:08.434Z,55
2017-04-30T04:38:33.901Z,55
2017-04-30T04:38:59.394Z,55
2017-04-30T04:39:24.824Z,55
2017-04-30T04:39:50.281Z,55
2017-04-30T04:40:15.787Z,55
2017-04-30T04:40:41.233Z,60
2017-04-30T04:41:06.723Z,60
2017-04-30T04:41:32.228Z,60
2017-04-30T04:41:57.666Z,60
2017-04-30T04:42:23.146Z,60
2017-04-30T04:42:48.580Z,60
2017-04-30T04:43:14.081Z,60
2017-04-30T04:43:39.549Z,60
2017-04-30T04:44:05.002Z,65
2017-04-30T04:44:30.509Z,65
2017-04-30T04:44:55.946Z,65
2017-04-30T04:45:21.430Z,65
2017-04-30T04:45:46.891Z,65
2017-04-30T04:46:12.368Z,65
2017-04-30T04:46:37.827Z,65
2017-04-30T04:47:03.328Z,65
2017-04-30T04:47:28.762Z,65
2017-04-30T04:47:54.254Z,70
2017-04-30T04:48:19.733Z,70
2017-04-30T04:48:45.188Z,70
2017-04-30T04:49:10.643Z,70
2017-04-30T04:49:36.134Z,70
2017-04-30T04:50:01.701Z,70
2017-04-30T04:50:27.150Z,70
2017-04-30T04:50:52.593Z,70
2017-04-30T04:51:18.059Z,70
2017-04-30T04:51:43.524Z,70
2017-04-30T04:52:08.985Z,75
2017-04-30T04:52:34.443Z,75
2017-04-30T04:52:59.974Z,75
2017-04-30T04:53:25.448Z,75
2017-04-30T04:53:50.921Z,75
2017-04-30T04:54:16.405Z,75
2017-04-30T04:54:41.836Z,75
2017-04-30T04:55:07.323Z,75
2017-04-30T04:55:32.774Z,75
2017-04-30T04:55:58.242Z,80
2017-04-30T04:56:23.750Z,80
2017-04-30T04:56:49.214Z,80
2017-04-30T04:57:14.672Z,80
2017-04-30T04:57:40.147Z,80
2017-04-30T04:58:05.645Z,80
2017-04-30T04:58:31.085Z,80
2017-04-30T04:58:56.553Z,80
2017-04-30T04:59:22.077Z,80
2017-04-30T04:59:47.547Z,80
2017-04-30T05:00:13.039Z,80
2017-04-30T05:00:38.462Z,85
2017-04-30T05:01:03.926Z,85
2017-04-30T05:01:29.378Z,85
2017-04-30T05:01:54.852Z,85
2017-04-30T05:02:20.318Z,85
2017-04-30T05:02:45.779Z,85
2017-04-30T05:03:11.323Z,85
2017-04-30T05:03:36.785Z,85
2017-04-30T05:04:02.255Z,85
2017-04-30T05:04:27.695Z,85
2017-04-30T05:04:53.199Z,90
2017-04-30T05:05:18.658Z,90
2017-04-30T05:05:44.150Z,90
2017-04-30T05:06:09.628Z,90
2017-04-30T05:06:35.070Z,90
2017-04-30T05:07:00.511Z,90
2017-04-30T05:07:25.986Z,90
2017-04-30T05:07:51.450Z,90
2017-04-30T05:08:16.919Z,90
2017-04-30T05:08:42.437Z,90
2017-04-30T05:09:07.887Z,90
2017-04-30T05:09:33.343Z,95
2017-04-30T05:09:58.805Z,95
2017-04-30T05:10:24.256Z,95
2017-04-30T05:10:49.711Z,95
2017-04-30T05:11:15.177Z,95
2017-04-30T05:11:40.652Z,95
2017-04-30T05:12:06.112Z,95
2017-04-30T05:12:31.573Z,95
2017-04-30T05:12:57.039Z,95
2017-04-30T05:13:22.543Z,95
2017-04-30T05:13:48.020Z,95
2017-04-30T05:14:13.500Z,100
2017-04-30T05:14:38.974Z,100
2017-04-30T05:15:04.449Z,100
2017-04-30T05:15:29.955Z,100
2017-04-30T05:15:55.412Z,100
2017-04-30T05:16:20.876Z,100
2017-04-30T05:16:46.379Z,100
2017-04-30T05:17:11.818Z,100
2017-04-30T05:17:37.321Z,100
2017-04-30T05:18:02.745Z,100
2017-04-30T05:18:28.245Z,100
2017-04-30T05:18:53.701Z,100
2017-04-30T05:19:19.152Z,100
2017-04-30T05:19:44.623Z,100
2017-04-30T05:20:10.043Z,105
2017-04-30T05:20:35.507Z,105
2017-04-30T05:21:00.991Z,105
2017-04-30T05:21:26.446Z,105
2017-04-30T05:21:51.901Z,105
2017-04-30T05:22:17.387Z,105
2017-04-30T05:22:42.849Z,105
2017-04-30T05:23:08.296Z,105
2017-04-30T05:23:33.775Z,105
2017-04-30T05:23:59.247Z,105
2017-04-30T05:24:24.701Z,105
2017-04-30T05:24:50.159Z,105
2017-04-30T05:25:15.619Z,105
2017-04-30T05:25:41.091Z,105
2017-04-30T05:26:06.573Z,105
2017-04-30T05:26:32.041Z,110
2017-04-30T05:26:57.498Z,110
2017-04-30T05:27:22.953Z,110
2017-04-30T05:27:48.421Z,110
2017-04-30T05:28:13.898Z,110
2017-04-30T05:28:39.343Z,110
2017-04-30T05:29:04.803Z,110
2017-04-30T05:29:30.225Z,110
2017-04-30T05:29:55.680Z,110
2017-04-30T05:30:21.145Z,110
2017-04-30T05:30:46.629Z,110
2017-04-30T05:31:12.073Z,110
2017-04-30T05:31:37.537Z,110
2017-04-30T05:32:02.978Z,110
2017-04-30T05:32:28.458Z,110
2017-04-30T05:32:53.903Z,110
2017-04-30T05:33:19.363Z,115
2017-04-30T05:33:44.864Z,115
2017-04-30T05:34:10.292Z,115
2017-04-30T05:34:35.756Z,115
2017-04-30T05:35:01.189Z,115
2017-04-30T05:35:26.643Z,115
2017-04-30T05:35:52.109Z,115
2017-04-30T05:36:17.597Z,115
2017-04-30T05:36:43.045Z,115
2017-04-30T05:37:08.503Z,115
2017-04-30T05:37:33.980Z,115
2017-04-30T05:37:59.463Z,115
2017-04-30T05:38:24.954Z,115
2017-04-30T05:38:50.399Z,115
2017-04-30T05:39:15.879Z,115
2017-04-30T05:39:41.329Z,115
2017-04-30T05:40:06.783Z,115
2017-04-30T05:40:32.279Z,120
2017-04-30T05:40:57.719Z,120
2017-04-30T05:41:23.190Z,120
2017-04-30T05:41:48.627Z,120
2017-04-30T05:42:14.146Z,120
2017-04-30T05:42:39.591Z,120
2017-04-30T05:43:05.066Z,120
2017-04-30T05:43:30.518Z,120
2017-04-30T05:43:55.985Z,120
2017-04-30T05:44:21.451Z,120
2017-04-30T05:44:46.931Z,120
2017-04-30T05:45:12.427Z,120
2017-04-30T05:45:37.887Z,120
2017-04-30T05:46:03.355Z,120
2017-04-30T05:46:28.806Z,120
2017-04-30T05:46:54.294Z,120
2017-04-30T05:47:19.731Z,120
2017-04-30T05:47:45.209Z,120
2017-04-30T05:48:10.641Z,125
2017-04-30T05:48:36.121Z,125
2017-04-30T05:49:01.604Z,125
2017-04-30T05:49:27.054Z,125
2017-04-30T05:49:52.562Z,125
2017-04-30T05:50:18.014Z,125
2017-04-30T05:50:43.444Z,125
2017-04-30T05:51:08.894Z,125
2017-04-30T05:51:34.351Z,125
2017-04-30T05:51:59.854Z,125
2017-04-30T05:52:25.290Z,125
2017-04-30T05:52:50.757Z,125
2017-04-30T05:53:16.291Z,125
2017-04-30T05:53:41.740Z,125
2017-04-30T05:54:07.163Z,125
2017-04-30T05:54:32.671Z,125
2017-04-30T05:54:58.106Z,125
2017-04-30T05:55:23.568Z,125
2017-04-30T05:55:49.031Z,125
2017-04-30T05:56:14.515Z,125
2017-04-30T05:56:39.979Z,125
2017-04-30T05:57:05.432Z,125
2017-04-30T05:57:31.018Z,125
2017-04-30T05:57:56.354Z,125
2017-04-30T05:58:21.840Z,125
2017-04-30T05:58:47.321Z,125
2017-04-30T05:59:12.755Z,125
2017-04-30T05:59:38.251Z,125
2017-04-30T06:00:03.715Z,125
2017-04-30T06:00:29.270Z,125
2017-04-30T06:00:54.698Z,125
2017-04-30T06:01:20.163Z,125
2017-04-30T06:01:45.650Z,125
2017-04-30T06:02:11.075Z,125
2017-04-30T06:02:36.558Z,125
2017-04-30T06:03:02.062Z,125
2017-04-30T06:03:27.530Z,125
2017-04-30T06:03:53.011Z,125
2017-04-30T06:04:18.454Z,125
2017-04-30T06:04:43.922Z,125
2017-04-30T06:05:09.430Z,125
2017-04-30T06:05:34.883Z,125
2017-04-30T06:06:00.377Z,125
2017-04-30T06:06:25.830Z,125
2017-04-30T06:06:51.335Z,130
2017-04-30T06:07:16.800Z,130
2017-04-30T06:07:42.319Z,130
2017-04-30T06:08:07.751Z,130
2017-04-30T06:08:33.211Z,130
2017-04-30T06:08:58.691Z,130
2017-04-30T06:09:24.149Z,130
2017-04-30T06:09:49.604Z,130
2017-04-30T06:10:15.112Z,130
2017-04-30T06:10:40.525Z,130
2017-04-30T06:11:06.000Z,130
2017-04-30T06:11:31.446Z,130
2017-04-30T06:11:56.946Z,130
2017-04-30T06:12:22.421Z,130
2017-04-30T06:12:47.878Z,130
2017-04-30T06:13:13.336Z,130
2017-04-30T06:13:38.795Z,130
2017-04-30T06:14:04.283Z,130
2017-04-30T06:14:29.772Z,130
2017-04-30T06:14:55.233Z,130
2017-04-30T06:15:20.690Z,130
2017-04-30T06:15:46.178Z,130
2017-04-30T06:16:11.716Z,130
2017-04-30T06:16:37.077Z,130
2017-04-30T06:17:02.556Z,130
2017-04-30T06:17:28.037Z,130
2017-04-30T06:17:53.495Z,130
2017-04-30T06:18:18.907Z,130
2017-04-30T06:18:44.414Z,135
2017-04-30T06:19:09.882Z,135
2017-04-30T06:19:35.375Z,135
2017-04-30T06:20:00.835Z,135
2017-04-30T06:20:26.282Z,135
2017-04-30T06:20:51.739Z,135
2017-04-30T06:21:17.194Z,135
2017-04-30T06:21:42.674Z,135
2017-04-30T06:22:08.138Z,135
2017-04-30T06:22:33.610Z,135
2017-04-30T06:22:59.075Z,135
2017-04-30T06:23:24.554Z,135
2017-04-30T06:23:50.022Z,135
2017-04-30T06:24:15.459Z,135
2017-04-30T06:24:40.944Z,135
2017-04-30T06:25:06.425Z,135
2017-04-30T06:25:31.911Z,135
2017-04-30T06:25:57.385Z,135
2017-04-30T06:26:22.817Z,135
2017-04-30T06:26:48.299Z,135
2017-04-30T06:27:13.790Z,135
2017-04-30T06:27:39.214Z,135
2017-04-30T06:28:04.670Z,135
2017-04-30T06:28:30.164Z,135
2017-04-30T06:28:55.670Z,135
2017-04-30T06:29:21.149Z,135
2017-04-30T06:29:46.640Z,135
2017-04-30T06:30:12.104Z,135
2017-04-30T06:30:37.630Z,135
2017-04-30T06:31:03.152Z,135
2017-04-30T06:31:28.639Z,140
2017-04-30T06:31:54.013Z,140
2017-04-30T06:32:19.487Z,140
2017-04-30T06:32:44.993Z,145
2017-04-30T06:33:10.420Z,140
2017-04-30T06:33:35.882Z,140
2017-04-30T06:34:01.346Z,140
2017-04-30T06:34:26.833Z,140
2017-04-30T06:34:52.304Z,140
2017-04-30T06:35:17.763Z,140
2017-04-30T06:35:43.227Z,140
2017-04-30T06:36:08.726Z,140
2017-04-30T06:36:34.170Z,140
2017-04-30T06:36:59.685Z,140
2017-04-30T06:37:25.076Z,140
2017-04-30T06:37:50.602Z,145
2017-04-30T06:38:16.054Z,140
2017-04-30T06:38:41.484Z,140
2017-04-30T06:39:06.973Z,140
2017-04-30T06:39:32.466Z,140
2017-04-30T06:39:57.909Z,140
2017-04-30T06:40:23.340Z,140
2017-04-30T06:40:48.856Z,140
2017-04-30T06:41:14.322Z,140
2017-04-30T06:41:39.815Z,140
2017-04-30T06:42:05.275Z,140
2017-04-30T06:42:30.731Z,140
2017-04-30T06:42:56.185Z,140
2017-04-30T06:43:21.643Z,140
2017-04-30T06:43:47.126Z,140
2017-04-30T06:44:12.560Z,140
2017-04-30T06:44:38.030Z,140
2017-04-30T06:45:03.474Z,140
2017-04-30T06:45:28.952Z,140
2017-04-30T06:45:54.420Z,140
2017-04-30T06:46:19.901Z,145
2017-04-30T06:46:45.369Z,145
2017-04-30T06:47:10.834Z,145
2017-04-30T06:47:36.318Z,145
2017-04-30T06:48:01.805Z,145
2017-04-30T06:48:27.252Z,145
2017-04-30T06:48:52.736Z,145
2017-04-30T06:49:18.230Z,145
2017-04-30T06:49:43.696Z,145
2017-04-30T06:50:09.142Z,145
2017-04-30T06:50:34.635Z,145
2017-04-30T06:51:00.126Z,145
2017-04-30T06:51:25.496Z,145
2017-04-30T06:51:50.968Z,145
2017-04-30T06:52:16.436Z,145
2017-04-30T06:52:41.923Z,145
2017-04-30T06:53:07.405Z,145
2017-04-30T06:53:32.857Z,145
2017-04-30T06:53:58.312Z,145
2017-04-30T06:54:23.788Z,145
2017-04-30T06:54:49.278Z,145
2017-04-30T06:55:14.716Z,145
2017-04-30T06:55:40.180Z,145
2017-04-30T06:56:05.636Z,145
2017-04-30T06:56:31.167Z,145
2017-04-30T06:56:56.638Z,145
2017-04-30T06:57:22.122Z,145
2017-04-30T06:57:47.599Z,145
2017-04-30T06:58:13.050Z,145
2017-04-30T06:58:38.525Z,145
2017-04-30T06:59:04.000Z,145
2017-04-30T06:59:29.466Z,145
2017-04-30T06:59:55.001Z,145
2017-04-30T07:00:20.449Z,145
2017-04-30T07:00:45.933Z,145
2017-04-30T07:01:11.466Z,145
2017-04-30T07:01:36.887Z,145
2017-04-30T07:02:02.356Z,150
2017-04-30T07:02:27.804Z,150
2017-04-30T07:02:53.291Z,150
2017-04-30T07:03:18.756Z,150
2017-04-30T07:03:44.213Z,150
2017-04-30T07:04:09.693Z,150
2017-04-30T07:04:35.230Z,150
2017-04-30T07:05:00.733Z,150
2017-04-30T07:05:26.197Z,150
2017-04-30T07:05:51.646Z,150
2017-04-30T07:06:17.150Z,150
2017-04-30T07:06:42.643Z,150
2017-04-30T07:07:08.115Z,150
2017-04-30T07:07:33.574Z,150
2017-04-30T07:07:59.023Z,150
2017-04-30T07:08:24.521Z,150
2017-04-30T07:08:49.955Z,150
2017-04-30T07:09:15.507Z,150
2017-04-30T07:09:40.918Z,150
2017-04-30T07:10:06.433Z,150
2017-04-30T07:10:31.861Z,150
2017-04-30T07:10:57.479Z,150
2017-04-30T07:11:22.822Z,150
2017-04-30T07:11:48.298Z,150
2017-04-30T07:12:13.810Z,150
2017-04-30T07:12:39.221Z,150
2017-04-30T07:13:04.700Z,150
2017-04-30T07:13:30.129Z,150
2017-04-30T07:13:55.597Z,150
2017-04-30T07:14:21.059Z,150
2017-04-30T07:14:46.554Z,150
2017-04-30T07:15:12.029Z,150
2017-04-30T07:15:37.494Z,150
2017-04-30T07:16:02.966Z,150
2017-04-30T07:16:28.427Z,150
2017-04-30T07:16:53.882Z,150
2017-04-30T07:17:19.422Z,150
2017-04-30T07:17:44.877Z,150
2017-04-30T07:18:10.316Z,150
2017-04-30T07:18:35.775Z,150
2017-04-30T07:19:01.214Z,155
2017-04-30T07:19:26.747Z,155
2017-04-30T07:19:52.205Z,155
2017-04-30T07:20:17.606Z,155
2017-04-30T07:20:43.155Z,155
2017-04-30T07:21:08.586Z,155
2017-04-30T07:21:34.075Z,155
2017-04-30T07:21:59.631Z,155
2017-04-30T07:22:25.107Z,155
2017-04-30T07:22:50.566Z,155
2017-04-30T07:23:16.064Z,155
2017-04-30T07:23:41.490Z,155
2017-04-30T07:24:06.939Z,160
2017-04-30T07:24:32.413Z,155
2017-04-30T07:24:57.917Z,155
2017-04-30T07:25:23.346Z,155
2017-04-30T07:25:48.814Z,155
2017-04-30T07:26:14.280Z,155
2017-04-30T07:26:39.775Z,155
2017-04-30T07:27:05.257Z,155
2017-04-30T07:27:30.700Z,155
2017-04-30T07:27:56.166Z,155
2017-04-30T07:28:21.615Z,155
2017-04-30T07:28:47.086Z,155
2017-04-30T07:29:12.551Z,155
2017-04-30T11:25:11.313Z,400
2017-04-30T11:25:36.905Z,405
2017-04-30T11:26:02.371Z,400
2017-04-30T11:26:27.886Z,395
2017-04-30T11:26:53.336Z,405
2017-04-30T11:27:18.803Z,410
2017-04-30T11:27:44.324Z,415
2017-04-30T11:28:09.790Z,420
2017-04-30T11:28:35.295Z,420
2017-04-30T11:29:00.829Z,425
2017-04-30T11:29:26.303Z,420
2017-04-30T11:29:51.856Z,420
2017-04-30T11:30:17.359Z,420
2017-04-30T11:30:42.787Z,420
2017-04-30T11:31:08.263Z,415
2017-04-30T11:31:33.737Z,405
2017-04-30T11:31:59.205Z,410
2017-04-30T11:32:24.673Z,410
2017-04-30T11:32:50.164Z,430
2017-04-30T11:33:15.583Z,440
2017-04-30T11:33:41.094Z,455
2017-04-30T11:34:06.538Z,440
2017-04-30T11:34:32.044Z,445
2017-04-30T11:34:57.500Z,435
2017-04-30T11:35:22.990Z,425
2017-04-30T11:35:48.502Z,420
2017-04-30T11:36:13.941Z,415
2017-04-30T11:36:39.414Z,405
2017-04-30T11:37:04.925Z,400
2017-04-30T11:37:30.416Z,395
2017-04-30T11:37:55.896Z,385
2017-04-30T11:38:21.369Z,385
2017-04-30T11:38:46.861Z,385
2017-04-30T11:39:12.328Z,385
2017-04-30T11:39:37.767Z,390
2017-04-30T11:40:03.259Z,400
2017-04-30T11:40:28.751Z,405
2017-04-30T11:40:54.238Z,395
2017-04-30T11:41:19.746Z,385
2017-04-30T11:41:45.226Z,375
2017-04-30T11:42:10.717Z,385
2017-04-30T11:42:36.221Z,395
2017-04-30T11:43:01.704Z,395
2017-04-30T11:43:27.208Z,395
2017-04-30T11:43:52.653Z,395
2017-04-30T11:44:18.130Z,390
2017-04-30T11:44:43.611Z,390
2017-04-30T11:45:09.103Z,385
2017-04-30T11:45:34.591Z,380
2017-04-30T11:46:00.111Z,380
2017-04-30T11:46:25.599Z,380
2017-04-30T11:46:51.079Z,370
2017-04-30T11:47:16.550Z,370
2017-04-30T11:47:41.992Z,370
2017-04-30T11:48:07.468Z,370
2017-04-30T11:48:32.974Z,380
2017-04-30T11:48:58.449Z,380
2017-04-30T11:49:23.948Z,390
2017-04-30T11:49:49.381Z,390
2017-04-30T11:50:14.852Z,395
2017-04-30T11:50:40.354Z,395
2017-04-30T11:51:05.781Z,400
2017-04-30T11:51:31.245Z,400
2017-04-30T11:51:56.760Z,405
2017-04-30T11:52:22.186Z,410
2017-04-30T11:52:47.654Z,415
2017-04-30T11:53:13.151Z,415
2017-04-30T11:53:38.678Z,415
2017-04-30T11:54:04.091Z,420
2017-04-30T11:54:29.635Z,415
2017-04-30T11:54:55.080Z,420
2017-04-30T11:55:20.569Z,415
2017-04-30T11:55:46.038Z,415
2017-04-30T11:56:11.496Z,410
2017-04-30T11:56:36.990Z,405
2017-04-30T11:57:02.448Z,400
2017-04-30T11:57:27.916Z,400
2017-04-30T11:57:53.393Z,400
2017-04-30T11:58:18.838Z,405
2017-04-30T11:58:44.393Z,410
2017-04-30T11:59:09.858Z,410
2017-04-30T11:59:35.314Z,415
2017-04-30T12:00:00.805Z,420
2017-04-30T12:00:26.241Z,420
2017-04-30T12:00:51.743Z,420
2017-04-30T12:01:17.244Z,420
2017-04-30T12:01:42.663Z,425
2017-04-30T12:02:08.139Z,420
2017-04-30T12:02:33.649Z,420
2017-04-30T12:02:59.094Z,430
2017-04-30T12:03:24.653Z,450
2017-04-30T12:03:50.121Z,660
2017-04-30T12:04:15.593Z,1040
2017-04-30T12:04:41.041Z,1500
2017-04-30T12:05:06.513Z,1900
2017-04-30T12:05:31.983Z,2220
2017-04-30T12:05:57.478Z,2280
2017-04-30T12:06:22.911Z,2320
2017-04-30T12:06:48.383Z,2325
2017-04-30T12:07:13.852Z,2285
2017-04-30T12:07:39.304Z,2215
2017-04-30T12:08:04.776Z,2225
2017-04-30T12:08:30.235Z,2250
2017-04-30T12:08:55.722Z,2280
2017-04-30T12:09:21.240Z,2355
2017-04-30T12:09:46.729Z,2415
2017-04-30T12:10:12.215Z,2450
2017-04-30T12:10:37.692Z,2455
2017-04-30T12:11:03.147Z,2420
2017-04-30T12:11:28.613Z,2430
2017-04-30T12:11:54.091Z,2480
2017-04-30T12:12:19.549Z,2560
2017-04-30T12:12:45.074Z,2585
2017-04-30T12:13:10.569Z,2515
2017-04-30T12:13:36.025Z,2380
2017-04-30T12:14:01.502Z,2225
2017-04-30T12:14:26.981Z,2205
2017-04-30T12:14:52.415Z,2185
2017-04-30T12:15:17.928Z,2135
2017-04-30T12:15:43.378Z,2105
2017-04-30T12:16:08.859Z,2095
2017-04-30T12:16:34.390Z,1840
2017-04-30T12:16:59.849Z,1950
2017-04-30T12:17:25.318Z,2020
2017-04-30T12:17:50.777Z,2110
2017-04-30T12:18:16.249Z,2245
2017-04-30T12:18:41.734Z,2320
2017-04-30T12:19:07.197Z,2415
2017-04-30T12:19:32.700Z,2475
2017-04-30T12:19:58.188Z,2460
2017-04-30T12:20:23.685Z,2355
2017-04-30T12:20:49.134Z,2310
2017-04-30T12:21:14.643Z,2350
2017-04-30T12:21:40.108Z,2420
2017-04-30T12:22:05.559Z,2455
2017-04-30T12:22:31.051Z,2440
2017-04-30T12:22:56.532Z,2445
2017-04-30T12:23:22.045Z,2420
2017-04-30T12:23:47.470Z,2445
2017-04-30T12:24:12.929Z,2460
2017-04-30T12:24:38.419Z,2480
2017-04-30T12:25:03.876Z,2550
2017-04-30T12:25:29.356Z,2555
2017-04-30T12:25:54.821Z,2605
2017-04-30T12:26:20.313Z,2585
2017-04-30T12:26:45.822Z,2485
2017-04-30T12:27:11.345Z,2445
2017-04-30T12:27:36.729Z,2260
2017-04-30T12:28:02.241Z,2440
2017-04-30T12:28:27.710Z,2530
2017-04-30T12:28:53.163Z,2480
2017-04-30T12:29:18.637Z,2495
2017-04-30T12:29:44.106Z,2595
2017-04-30T12:30:09.587Z,2460
2017-04-30T12:30:35.065Z,2690
2017-04-30T12:31:00.531Z,2830
2017-04-30T12:31:26.021Z,2760
2017-04-30T12:31:51.502Z,2700
2017-04-30T12:32:16.984Z,2630
2017-04-30T12:32:42.461Z,2570
2017-04-30T12:33:07.912Z,2565
2017-04-30T12:33:33.393Z,2550
2017-04-30T12:33:58.886Z,2525
2017-04-30T12:34:24.353Z,2500
2017-04-30T12:34:49.833Z,2510
2017-04-30T12:35:15.301Z,2545
2017-04-30T12:35:40.786Z,2620
2017-04-30T12:36:06.281Z,2715
2017-04-30T12:36:31.761Z,2820
2017-04-30T12:36:57.254Z,2845
2017-04-30T12:37:22.742Z,2705
2017-04-30T12:37:48.221Z,2650
2017-04-30T12:38:13.747Z,2575
2017-04-30T12:38:39.189Z,2645
2017-04-30T12:39:04.670Z,2590
2017-04-30T12:39:30.161Z,2660
2017-04-30T12:39:55.611Z,2770
2017-04-30T12:40:21.129Z,2640
2017-04-30T12:40:46.611Z,2650
2017-04-30T12:41:12.111Z,2605
2017-04-30T12:41:37.574Z,2240
2017-04-30T12:42:03.047Z,2645
2017-04-30T12:42:28.537Z,2630
2017-04-30T12:42:54.043Z,1445
2017-04-30T12:43:19.527Z,2575
2017-04-30T12:43:45.108Z,2635
2017-04-30T12:44:10.556Z,2840
2017-04-30T12:44:36.039Z,2800
2017-04-30T12:45:01.546Z,2680
2017-04-30T12:45:27.003Z,2615
2017-04-30T12:45:52.513Z,2535
2017-04-30T12:46:17.961Z,2555
2017-04-30T12:46:43.432Z,2575
2017-04-30T12:47:08.921Z,2625
2017-04-30T12:47:34.439Z,2655
2017-04-30T12:47:59.924Z,2710
2017-04-30T12:48:25.420Z,2755
2017-04-30T12:48:50.914Z,2810
2017-04-30T12:49:16.423Z,2840
2017-04-30T12:49:41.908Z,2750
2017-04-30T12:50:07.375Z,2725
2017-04-30T12:50:32.864Z,2600
2017-04-30T12:50:58.328Z,2425
2017-04-30T12:51:23.806Z,2560
2017-04-30T12:51:49.307Z,2575
2017-04-30T12:52:14.797Z,2465
2017-04-30T12:52:40.288Z,2395
2017-04-30T12:53:05.750Z,2440
2017-04-30T12:53:31.234Z,2685
2017-04-30T12:53:56.679Z,2420
2017-04-30T12:54:22.207Z,2450
2017-04-30T12:54:47.642Z,2455
2017-04-30T12:55:13.123Z,2625
2017-04-30T12:55:38.589Z,2520
2017-04-30T12:56:04.064Z,2470
2017-04-30T12:56:29.545Z,2310
2017-04-30T12:56:55.073Z,2350
2017-04-30T12:57:20.534Z,2220
2017-04-30T12:57:46.030Z,2180
2017-04-30T12:58:11.477Z,2095
2017-04-30T12:58:36.972Z,2455
2017-04-30T12:59:02.433Z,2535
2017-04-30T12:59:27.922Z,2465
2017-04-30T12:59:53.375Z,2290
2017-04-30T13:00:18.822Z,2015
2017-04-30T13:00:44.303Z,1855
2017-04-30T13:01:09.789Z,1775
2017-04-30T13:01:35.248Z,1930
2017-04-30T13:02:00.750Z,1655
2017-04-30T13:02:26.197Z,1605
2017-04-30T13:02:51.706Z,1670
2017-04-30T13:03:17.149Z,1595
2017-04-30T13:03:42.611Z,1710
2017-04-30T13:04:08.153Z,1925
2017-04-30T13:04:33.601Z,1800
2017-04-30T13:04:59.099Z,2250
2017-04-30T13:05:24.535Z,2100
2017-04-30T13:05:50.011Z,2215
2017-04-30T13:06:15.471Z,2330
2017-04-30T13:06:40.931Z,2350
2017-04-30T13:07:06.403Z,2300
2017-04-30T13:07:31.919Z,1990
2017-04-30T13:07:57.435Z,2290
2017-04-30T13:08:22.882Z,2410
2017-04-30T13:08:48.395Z,2340
2017-04-30T13:09:13.882Z,2535
2017-04-30T13:09:39.379Z,2465
2017-04-30T13:10:04.822Z,2570
2017-04-30T13:10:30.291Z,2405
2017-04-30T13:10:55.784Z,2150
2017-04-30T13:11:21.269Z,1890
2017-04-30T13:11:46.687Z,1280
2017-04-30T13:12:12.300Z,920
2017-04-30T13:12:37.771Z,795
2017-04-30T13:13:03.253Z,870
2017-04-30T13:13:28.717Z,880
2017-04-30T13:13:54.192Z,1040
2017-04-30T13:14:19.702Z,840
2017-04-30T13:14:45.143Z,925
2017-04-30T13:15:10.589Z,890
2017-04-30T13:15:36.069Z,970
2017-04-30T13:16:01.541Z,925
2017-04-30T13:16:27.030Z,860
2017-04-30T13:16:52.518Z,800
2017-04-30T13:17:18.006Z,795
2017-04-30T13:17:43.512Z,740
2017-04-30T13:18:08.991Z,700
2017-04-30T13:18:34.437Z,685
2017-04-30T13:18:59.906Z,645
2017-04-30T13:19:25.349Z,660
2017-04-30T13:19:50.864Z,665
2017-04-30T13:20:16.394Z,700
2017-04-30T13:20:41.896Z,690
2017-04-30T13:21:07.355Z,725
2017-04-30T13:21:32.833Z,755
2017-04-30T13:21:58.375Z,760
2017-04-30T13:22:23.873Z,745
2017-04-30T13:22:49.313Z,770
2017-04-30T13:23:14.792Z,850
2017-04-30T13:23:40.299Z,1095
2017-04-30T13:24:05.766Z,1250
2017-04-30T13:24:31.233Z,1415
2017-04-30T13:24:56.689Z,1310
2017-04-30T13:25:22.145Z,1455
2017-04-30T13:25:47.649Z,1615
2017-04-30T13:26:13.090Z,1840
2017-04-30T13:26:38.566Z,1995
2017-04-30T13:27:04.080Z,2175
2017-04-30T13:27:29.569Z,2305
2017-04-30T13:27:55.138Z,2360
2017-04-30T13:28:20.547Z,2415
2017-04-30T13:28:46.019Z,2430
2017-04-30T13:29:11.467Z,2450
2017-04-30T13:29:36.954Z,2265
2017-04-30T13:30:02.414Z,2230
2017-04-30T13:30:27.934Z,2340
2017-04-30T13:30:53.372Z,2460
2017-04-30T13:31:18.846Z,2505
2017-04-30T13:31:44.260Z,2500
2017-04-30T13:32:09.720Z,2460
2017-04-30T13:32:35.209Z,2410
2017-04-30T13:33:00.664Z,2405
2017-04-30T13:33:26.153Z,2335
2017-04-30T13:33:51.659Z,2340
2017-04-30T13:34:17.161Z,2375
2017-04-30T13:34:42.620Z,2420
2017-04-30T13:35:08.112Z,2510
2017-04-30T13:35:33.559Z,2550
2017-04-30T13:35:59.047Z,2485
2017-04-30T13:36:24.553Z,2300
2017-04-30T13:36:50.005Z,2165
2017-04-30T13:37:15.502Z,2145
2017-04-30T13:37:40.955Z,2195
2017-04-30T13:38:06.420Z,2290
2017-04-30T13:38:31.927Z,2430
2017-04-30T13:38:57.407Z,2545
2017-04-30T13:39:22.915Z,2605
2017-04-30T13:39:48.404Z,2590
2017-04-30T13:40:13.874Z,2535
2017-04-30T13:40:39.345Z,2455
2017-04-30T13:41:04.898Z,2420
2017-04-30T13:41:30.363Z,2405
2017-04-30T13:41:55.798Z,2425
2017-04-30T13:42:21.301Z,2440
2017-04-30T13:42:46.761Z,2430
2017-04-30T13:43:12.219Z,2380
2017-04-30T13:43:37.708Z,2380
2017-04-30T13:44:03.206Z,2380
2017-04-30T13:44:28.665Z,2365
2017-04-30T13:44:54.134Z,2255
2017-04-30T13:45:19.632Z,2155
2017-04-30T13:45:45.168Z,2070
2017-04-30T13:46:10.746Z,2120